createdAt,value
2022-11-20T00:01:26.610Z,-1.53
2022-11-20T00:03:55.058Z,-1.55
2022-11-20T00:06:22.724Z,-1.44
2022-11-20T00:08:49.651Z,-1.58
2022-11-20T00:11:21.507Z,-1.35
2022-11-20T00:13:49.947Z,-1.51
2022-11-20T00:16:19.313Z,-1.51
2022-11-20T00:18:46.387Z,-1.43
2022-11-20T00:21:18.117Z,-1.39
2022-11-20T00:23:44.883Z,-1.51
2022-11-20T00:26:14.410Z,-1.45
2022-11-20T00:28:41.594Z,-1.31
2022-11-20T00:31:16.933Z,-1.31
2022-11-20T00:33:44.654Z,-1.48
2022-11-20T00:36:13.887Z,-1.30
2022-11-20T00:38:40.743Z,-1.37
2022-11-20T00:41:10.179Z,-1.42
2022-11-20T00:43:37.488Z,-1.20
2022-11-20T00:46:10.116Z,-1.25
2022-11-20T00:48:36.758Z,-1.18
2022-11-20T00:51:03.276Z,-1.20
2022-11-20T00:53:29.741Z,-1.29
2022-11-20T00:55:57.936Z,-1.31
2022-11-20T00:58:25.577Z,-1.10
2022-11-20T01:00:52.221Z,-1.19
2022-11-20T01:03:24.136Z,-1.48
2022-11-20T01:05:53.303Z,-1.21
2022-11-20T01:08:19.719Z,-1.13
2022-11-20T01:10:46.137Z,-1.09
2022-11-20T01:13:30.970Z,-1.05
2022-11-20T01:16:03.684Z,-0.99
2022-11-20T01:18:30.127Z,-0.87
2022-11-20T01:20:56.610Z,-1.22
2022-11-20T01:23:23.202Z,-1.34
2022-11-20T01:25:49.718Z,-1.27
2022-11-20T01:28:16.238Z,-1.32
2022-11-20T01:30:42.685Z,-1.32
2022-11-20T01:33:09.106Z,-1.27
2022-11-20T01:35:35.606Z,-0.98
2022-11-20T01:38:02.057Z,-1.29
2022-11-20T01:40:28.471Z,-1.04
2022-11-20T01:43:24.191Z,-1.00
2022-11-20T01:46:20.501Z,-1.15
2022-11-20T01:48:56.955Z,-1.30
2022-11-20T01:51:44.731Z,-1.38
2022-11-20T01:54:18.075Z,-1.44
2022-11-20T01:56:47.405Z,-1.36
2022-11-20T01:59:18.942Z,-1.41
2022-11-20T02:01:46.094Z,-1.36
2022-11-20T02:04:14.735Z,-1.62
2022-11-20T02:07:24.946Z,-1.44
2022-11-20T02:09:57.384Z,-1.79
2022-11-20T02:12:43.624Z,-1.65
2022-11-20T02:15:10.485Z,-1.57
2022-11-20T02:17:37.078Z,-1.64
2022-11-20T02:20:05.358Z,-1.74
2022-11-20T02:22:39.507Z,-1.57
2022-11-20T02:25:08.645Z,-1.74
2022-11-20T02:27:35.263Z,-1.83
2022-11-20T02:30:04.515Z,-1.80
2022-11-20T02:32:33.846Z,-1.87
2022-11-20T02:35:27.681Z,-1.83
2022-11-20T02:37:56.826Z,-2.03
2022-11-20T02:40:23.927Z,-1.94
2022-11-20T02:42:57.766Z,-1.97
2022-11-20T02:45:24.999Z,-1.95
2022-11-20T02:47:52.314Z,-1.89
2022-11-20T02:50:19.010Z,-1.82
2022-11-20T02:52:45.426Z,-1.82
2022-11-20T02:55:12.019Z,-1.83
2022-11-20T02:57:38.479Z,-1.67
2022-11-20T03:00:05.642Z,-1.51
2022-11-20T03:02:32.456Z,-1.63
2022-11-20T03:04:59.133Z,-1.92
2022-11-20T03:07:26.551Z,-1.72
2022-11-20T03:09:53.042Z,-1.81
2022-11-20T03:12:19.482Z,-1.53
2022-11-20T03:14:50.189Z,-1.32
2022-11-20T03:17:19.341Z,-1.56
2022-11-20T03:19:45.790Z,-1.52
2022-11-20T03:22:12.245Z,-1.72
2022-11-20T03:24:38.730Z,-1.91
2022-11-20T03:27:05.223Z,-2.08
2022-11-20T03:29:31.690Z,-1.94
2022-11-20T03:31:58.227Z,-1.78
2022-11-20T03:34:24.794Z,-1.96
2022-11-20T03:36:51.187Z,-1.97
2022-11-20T03:39:17.581Z,-2.02
2022-11-20T03:41:44.388Z,-1.99
2022-11-20T03:44:12.378Z,-1.77
2022-11-20T03:46:39.180Z,-1.94
2022-11-20T03:49:05.760Z,-1.95
2022-11-20T03:51:34.569Z,-2.18
2022-11-20T03:54:04.364Z,-2.00
2022-11-20T03:56:33.223Z,-1.98
2022-11-20T03:59:00.003Z,-1.87
2022-11-20T04:01:29.287Z,-1.94
2022-11-20T04:03:57.344Z,-1.95
2022-11-20T04:06:26.835Z,-2.00
2022-11-20T04:08:56.473Z,-1.89
2022-11-20T04:11:26.022Z,-1.97
2022-11-20T04:13:58.055Z,-1.98
2022-11-20T04:16:26.085Z,-2.17
2022-11-20T04:18:57.348Z,-2.21
2022-11-20T04:21:24.600Z,-2.20
2022-11-20T04:23:52.230Z,-2.12
2022-11-20T04:26:18.682Z,-2.17
2022-11-20T04:28:45.107Z,-2.08
2022-11-20T04:31:17.488Z,-1.97
2022-11-20T04:33:44.601Z,-2.22
2022-11-20T04:36:17.347Z,-2.03
2022-11-20T04:38:44.207Z,-2.34
2022-11-20T04:41:21.999Z,-2.28
2022-11-20T04:43:50.425Z,-1.98
2022-11-20T04:46:21.295Z,-1.92
2022-11-20T04:48:48.828Z,-1.95
2022-11-20T04:51:15.719Z,-2.08
2022-11-20T04:53:42.950Z,-1.90
2022-11-20T04:56:11.960Z,-1.76
2022-11-20T04:58:39.160Z,-1.98
2022-11-20T05:01:09.770Z,-2.05
2022-11-20T05:03:41.060Z,-2.06
2022-11-20T05:06:10.375Z,-2.29
2022-11-20T05:08:36.858Z,-2.01
2022-11-20T05:11:08.921Z,-2.07
2022-11-20T05:13:35.398Z,-2.04
2022-11-20T05:16:06.659Z,-1.99
2022-11-20T05:18:34.807Z,-1.95
2022-11-20T05:21:01.273Z,-1.80
2022-11-20T05:23:28.459Z,-1.95
2022-11-20T05:25:59.229Z,-1.84
2022-11-20T05:28:27.021Z,-1.99
2022-11-20T05:30:53.496Z,-1.84
2022-11-20T05:33:19.974Z,-1.77
2022-11-20T05:35:46.409Z,-1.98
2022-11-20T05:38:12.884Z,-1.79
2022-11-20T05:40:39.386Z,-1.89
2022-11-20T05:43:05.871Z,-1.90
2022-11-20T05:45:32.362Z,-1.75
2022-11-20T05:48:01.129Z,-1.84
2022-11-20T05:50:30.982Z,-1.83
2022-11-20T05:53:00.989Z,-2.21
2022-11-20T05:55:28.351Z,-2.30
2022-11-20T05:57:55.829Z,-2.07
2022-11-20T06:00:22.689Z,-1.94
2022-11-20T06:02:49.265Z,-2.22
2022-11-20T06:05:15.786Z,-2.15
2022-11-20T06:07:42.588Z,-2.20
2022-11-20T06:10:09.480Z,-2.13
2022-11-20T06:12:35.982Z,-2.29
2022-11-20T06:15:02.684Z,-2.26
2022-11-20T06:17:29.096Z,-2.16
2022-11-20T06:19:55.523Z,-2.14
2022-11-20T06:22:21.917Z,-2.23
2022-11-20T06:24:48.721Z,-2.33
2022-11-20T06:27:15.281Z,-2.29
2022-11-20T06:29:41.779Z,-2.17
2022-11-20T06:32:08.221Z,-2.08
2022-11-20T06:34:34.675Z,-2.18
2022-11-20T06:37:01.203Z,-2.10
2022-11-20T06:39:27.716Z,-2.06
2022-11-20T06:41:58.549Z,-2.30
2022-11-20T06:44:25.550Z,-2.30
2022-11-20T06:46:52.023Z,-2.34
2022-11-20T06:49:18.448Z,-2.48
2022-11-20T06:51:44.885Z,-2.27
2022-11-20T06:54:11.420Z,-2.47
2022-11-20T06:56:37.818Z,-2.39
2022-11-20T06:59:08.102Z,-2.65
2022-11-20T07:01:35.927Z,-2.67
2022-11-20T07:04:02.997Z,-2.59
2022-11-20T07:06:29.516Z,-2.54
2022-11-20T07:08:55.965Z,-2.53
2022-11-20T07:11:22.422Z,-2.66
2022-11-20T07:13:48.837Z,-2.66
2022-11-20T07:16:15.329Z,-2.50
2022-11-20T07:18:45.924Z,-2.80
2022-11-20T07:21:15.761Z,-2.56
2022-11-20T07:23:42.213Z,-2.63
2022-11-20T07:26:11.520Z,-2.39
2022-11-20T07:28:38.344Z,-2.32
2022-11-20T07:31:05.932Z,-2.33
2022-11-20T07:33:32.433Z,-2.22
2022-11-20T07:36:02.283Z,-2.08
2022-11-20T07:38:28.735Z,-2.34
2022-11-20T07:40:58.707Z,-2.31
2022-11-20T07:43:26.220Z,-2.29
2022-11-20T07:45:52.769Z,-2.19
2022-11-20T07:48:19.144Z,-2.00
2022-11-20T07:50:45.572Z,-2.26
2022-11-20T07:53:13.354Z,-2.38
2022-11-20T07:55:39.795Z,-2.45
2022-11-20T07:58:06.445Z,-2.25
2022-11-20T08:00:33.056Z,-2.31
2022-11-20T08:02:59.630Z,-2.34
2022-11-20T08:05:26.030Z,-2.21
2022-11-20T08:07:52.453Z,-2.00
2022-11-20T08:10:18.995Z,-2.01
2022-11-20T08:13:08.905Z,-1.87
2022-11-20T08:15:36.390Z,-2.13
2022-11-20T08:21:04.760Z,-2.28
2022-11-20T08:23:31.956Z,-2.10
2022-11-20T08:25:58.444Z,-2.14
2022-11-20T08:28:24.897Z,-2.32
2022-11-20T08:30:51.726Z,-1.91
2022-11-20T08:33:18.869Z,-1.76
2022-11-20T08:35:45.437Z,-2.07
2022-11-20T08:38:11.945Z,-1.83
2022-11-20T08:40:38.498Z,-1.91
2022-11-20T08:43:05.300Z,-2.13
2022-11-20T08:45:34.496Z,-1.94
2022-11-20T08:48:04.783Z,-1.99
2022-11-20T08:50:33.336Z,-1.98
2022-11-20T08:53:07.172Z,-1.94
2022-11-20T08:55:36.282Z,-2.15
2022-11-20T08:58:06.097Z,-1.99
2022-11-20T09:00:33.932Z,-1.92
2022-11-20T09:03:02.106Z,-2.17
2022-11-20T09:05:28.773Z,-2.13
2022-11-20T09:07:59.087Z,-1.99
2022-11-20T09:10:26.241Z,-1.87
2022-11-20T09:12:53.494Z,-2.04
2022-11-20T09:15:20.715Z,-2.20
2022-11-20T09:17:59.131Z,-1.92
2022-11-20T09:20:26.910Z,-1.78
2022-11-20T09:22:53.358Z,-1.93
2022-11-20T09:25:19.791Z,-1.94
2022-11-20T09:27:47.053Z,-1.80
2022-11-20T09:30:15.689Z,-1.72
2022-11-20T09:32:43.388Z,-1.79
2022-11-20T09:35:09.853Z,-1.72
2022-11-20T09:37:36.441Z,-2.05
2022-11-20T09:40:02.986Z,-2.06
2022-11-20T09:42:52.703Z,-1.70
2022-11-20T09:45:29.673Z,-1.73
2022-11-20T09:48:23.957Z,-1.97
2022-11-20T09:51:02.906Z,-2.05
2022-11-20T09:53:45.959Z,-1.82
2022-11-20T09:56:16.995Z,-1.81
2022-11-20T09:58:54.724Z,-1.80
2022-11-20T10:01:27.049Z,-1.74
2022-11-20T10:04:04.505Z,-1.81
2022-11-20T10:06:40.612Z,-1.86
2022-11-20T10:09:16.996Z,-1.76
2022-11-20T10:12:22.316Z,-1.53
2022-11-20T10:15:07.449Z,-1.55
2022-11-20T10:17:51.963Z,-1.83
2022-11-20T10:20:33.568Z,-1.79
2022-11-20T10:23:24.273Z,-1.66
2022-11-20T10:25:58.313Z,-1.84
2022-11-20T10:28:35.817Z,-1.44
2022-11-20T10:31:09.325Z,-1.60
2022-11-20T10:34:10.610Z,-1.36
2022-11-20T10:36:51.571Z,-1.38
2022-11-20T10:39:23.104Z,-1.66
2022-11-20T10:41:52.871Z,-1.54
2022-11-20T10:44:42.926Z,-1.34
2022-11-20T10:47:17.336Z,-1.43
2022-11-20T10:49:50.569Z,-1.41
2022-11-20T10:52:32.210Z,-1.11
2022-11-20T10:54:58.573Z,-1.40
2022-11-20T10:57:47.663Z,-0.83
2022-11-20T11:00:14.832Z,-1.06
2022-11-20T11:02:48.928Z,-0.81
2022-11-20T11:05:21.227Z,-0.87
2022-11-20T11:07:51.449Z,-1.02
2022-11-20T11:10:39.462Z,-0.75
2022-11-20T11:13:05.901Z,-0.70
2022-11-20T11:15:40.735Z,-0.28
2022-11-20T11:18:11.406Z,-0.25
2022-11-20T11:20:38.474Z,0.08
2022-11-20T11:23:06.527Z,0.22
2022-11-20T11:25:37.546Z,0.22
2022-11-20T11:28:19.059Z,0.46
2022-11-20T11:30:46.221Z,0.39
2022-11-20T11:33:27.442Z,0.31
2022-11-20T11:36:03.746Z,0.16
2022-11-20T11:38:35.177Z,0.11
2022-11-20T11:41:02.501Z,-0.14
2022-11-20T11:43:55.958Z,-0.30
2022-11-20T11:46:36.317Z,-0.40
2022-11-20T11:49:17.157Z,-0.30
2022-11-20T11:52:04.794Z,-0.63
2022-11-20T11:54:34.570Z,-0.46
2022-11-20T11:57:04.588Z,-0.34
2022-11-20T12:00:09.100Z,-0.27
2022-11-20T12:02:40.079Z,0.02
2022-11-20T12:05:44.621Z,-0.21
2022-11-20T12:08:40.304Z,-0.30
2022-11-20T12:11:20.149Z,-0.38
2022-11-20T12:13:52.461Z,-0.21
2022-11-20T12:16:20.998Z,-0.04
2022-11-20T12:18:50.956Z,-0.21
2022-11-20T12:21:23.096Z,-0.61
2022-11-20T12:24:07.614Z,-0.47
2022-11-20T12:26:57.232Z,-0.05
2022-11-20T12:29:51.272Z,-0.20
2022-11-20T12:32:23.362Z,-0.22
2022-11-20T12:35:17.577Z,-0.02
2022-11-20T12:38:02.328Z,-0.28
2022-11-20T12:40:43.628Z,-0.08
2022-11-20T12:43:40.660Z,-0.13
2022-11-20T12:46:07.018Z,-0.23
2022-11-20T12:48:50.133Z,-0.56
2022-11-20T12:51:19.408Z,-0.31
2022-11-20T12:54:10.049Z,-0.39
2022-11-20T12:57:18.214Z,-0.21
2022-11-20T12:59:54.231Z,-0.13
2022-11-20T13:02:27.041Z,-0.19
2022-11-20T13:05:10.697Z,-0.26
2022-11-20T13:07:37.641Z,-0.22
2022-11-20T13:10:11.733Z,-0.08
2022-11-20T13:12:52.646Z,0.15
2022-11-20T13:15:35.064Z,-0.31
2022-11-20T13:18:04.100Z,-0.33
2022-11-20T13:20:34.084Z,-0.54
2022-11-20T13:23:00.707Z,-0.76
2022-11-20T13:25:27.148Z,-0.66
2022-11-20T13:27:55.055Z,-0.66
2022-11-20T13:30:26.686Z,-0.45
2022-11-20T13:33:00.732Z,-0.59
2022-11-20T13:35:30.518Z,-0.77
2022-11-20T13:38:09.707Z,-0.93
2022-11-20T13:40:52.253Z,-1.10
2022-11-20T13:43:41.679Z,-0.62
2022-11-20T13:46:10.103Z,-0.55
2022-11-20T13:48:42.355Z,-0.36
2022-11-20T13:51:23.217Z,-0.70
2022-11-20T13:54:18.979Z,-0.61
2022-11-20T13:57:04.236Z,-0.78
2022-11-20T13:59:52.196Z,-0.66
2022-11-20T14:02:20.686Z,-0.72
2022-11-20T14:04:50.399Z,-0.54
2022-11-20T14:07:19.751Z,-0.52
2022-11-20T14:09:54.477Z,-0.42
2022-11-20T14:12:32.988Z,-0.49
2022-11-20T14:14:59.890Z,-0.24
2022-11-20T14:17:35.846Z,-0.24
2022-11-20T14:20:06.282Z,-0.42
2022-11-20T14:22:33.111Z,-0.17
2022-11-20T14:25:15.118Z,-0.26
2022-11-20T14:27:43.866Z,-0.10
2022-11-20T14:30:16.092Z,0.01
2022-11-20T14:32:43.937Z,-0.06
2022-11-20T14:35:19.928Z,0.05
2022-11-20T14:37:46.669Z,-0.28
2022-11-20T14:40:36.020Z,-0.14
2022-11-20T14:43:17.224Z,-0.07
2022-11-20T14:45:44.781Z,-0.04
2022-11-20T14:48:12.424Z,-0.13
2022-11-20T14:50:39.263Z,-0.26
2022-11-20T14:53:05.915Z,-0.49
2022-11-20T14:55:38.230Z,-0.21
2022-11-20T14:58:07.504Z,-0.07
2022-11-20T15:00:35.760Z,-0.07
2022-11-20T15:03:02.321Z,-0.36
2022-11-20T15:05:49.252Z,-0.40
2022-11-20T15:08:17.202Z,-0.20
2022-11-20T15:10:49.281Z,-0.19
2022-11-20T15:13:37.153Z,-0.37
2022-11-20T15:16:14.184Z,-0.45
2022-11-20T15:18:44.682Z,-0.16
2022-11-20T15:21:13.482Z,-0.25
2022-11-20T15:23:39.955Z,-0.30
2022-11-20T15:26:07.788Z,-0.29
2022-11-20T15:28:42.125Z,-0.21
2022-11-20T15:31:13.061Z,-0.54
2022-11-20T15:33:39.587Z,-0.46
2022-11-20T15:36:06.148Z,-0.43
2022-11-20T15:38:32.585Z,-0.65
2022-11-20T15:40:59.113Z,-0.28
2022-11-20T15:43:25.552Z,-0.54
2022-11-20T15:45:55.594Z,-0.49
2022-11-20T15:48:28.914Z,-0.40
2022-11-20T15:51:18.017Z,-0.46
2022-11-20T15:53:44.613Z,-0.45
2022-11-20T15:56:15.036Z,-0.79
2022-11-20T15:58:42.316Z,-0.46
2022-11-20T16:01:17.425Z,-0.69
2022-11-20T16:03:44.321Z,-0.70
2022-11-20T16:06:10.720Z,-0.66
2022-11-20T16:08:37.321Z,-0.72
2022-11-20T16:11:04.360Z,-0.60
2022-11-20T16:13:51.589Z,-0.80
2022-11-20T16:16:22.531Z,-0.82
2022-11-20T16:18:49.682Z,-0.95
2022-11-20T16:21:16.352Z,-1.06
2022-11-20T16:23:43.425Z,-0.79
2022-11-20T16:26:14.587Z,-1.18
2022-11-20T16:28:41.783Z,-1.14
2022-11-20T16:31:17.106Z,-1.11
2022-11-20T16:33:43.997Z,-1.25
2022-11-20T16:36:15.195Z,-1.14
2022-11-20T16:38:42.031Z,-1.41
2022-11-20T16:41:15.864Z,-1.39
2022-11-20T16:43:52.223Z,-1.51
2022-11-20T16:46:21.757Z,-1.36
2022-11-20T16:49:03.289Z,-1.43
2022-11-20T16:51:32.535Z,-1.57
2022-11-20T16:54:02.408Z,-1.50
2022-11-20T16:56:28.847Z,-1.50
2022-11-20T16:58:57.545Z,-1.57
2022-11-20T17:01:25.795Z,-1.58
2022-11-20T17:04:03.244Z,-1.48
2022-11-20T17:06:34.180Z,-1.38
2022-11-20T17:09:00.940Z,-1.47
2022-11-20T17:11:28.474Z,-1.49
2022-11-20T17:13:56.166Z,-1.49
2022-11-20T17:16:24.180Z,-1.51
2022-11-20T17:18:50.798Z,-1.41
2022-11-20T17:21:18.838Z,-1.42
2022-11-20T17:23:46.575Z,-1.47
2022-11-20T17:26:22.301Z,-1.31
2022-11-20T17:29:02.988Z,-1.28
2022-11-20T17:31:31.594Z,-1.30
2022-11-20T17:34:00.196Z,-1.30
2022-11-20T17:36:28.004Z,-1.38
2022-11-20T17:38:54.721Z,-1.26
2022-11-20T17:41:25.162Z,-1.40
2022-11-20T17:43:56.302Z,-1.21
2022-11-20T17:46:25.261Z,-1.43
2022-11-20T17:48:52.052Z,-1.44
2022-11-20T17:51:27.639Z,-1.48
2022-11-20T17:53:56.467Z,-1.32
2022-11-20T17:56:41.660Z,-1.33
2022-11-20T17:59:12.720Z,-1.67
2022-11-20T18:01:40.386Z,-1.54
2022-11-20T18:04:07.049Z,-1.42
2022-11-20T18:06:33.654Z,-1.29
2022-11-20T18:09:02.540Z,-1.26
2022-11-20T18:11:33.624Z,-1.49
2022-11-20T18:14:21.173Z,-1.68
2022-11-20T18:16:53.577Z,-1.93
2022-11-20T18:19:32.383Z,-1.71
2022-11-20T18:22:01.250Z,-1.70
2022-11-20T18:24:28.164Z,-1.67
2022-11-20T18:26:54.618Z,-1.88
2022-11-20T18:29:21.296Z,-1.91
2022-11-20T18:31:48.226Z,-1.68
2022-11-20T18:34:14.759Z,-1.62
2022-11-20T18:36:42.728Z,-2.02
2022-11-20T18:39:11.931Z,-1.84
2022-11-20T18:41:57.627Z,-1.90
2022-11-20T18:44:45.682Z,-2.15
2022-11-20T18:47:15.858Z,-2.08
2022-11-20T18:49:52.622Z,-2.03
2022-11-20T18:52:25.294Z,-1.91
2022-11-20T18:54:51.987Z,-1.98
2022-11-20T18:57:24.645Z,-2.04
2022-11-20T18:59:51.424Z,-1.88
2022-11-20T19:02:20.207Z,-1.92
2022-11-20T19:04:47.044Z,-1.83
2022-11-20T19:07:15.772Z,-1.96
2022-11-20T19:09:44.466Z,-1.86
2022-11-20T19:12:12.577Z,-1.73
2022-11-20T19:14:39.339Z,-1.84
2022-11-20T19:17:06.939Z,-2.04
2022-11-20T19:19:36.534Z,-2.10
2022-11-20T19:22:04.525Z,-1.99
2022-11-20T19:24:31.090Z,-2.08
2022-11-20T19:26:57.611Z,-2.16
2022-11-20T19:29:25.655Z,-2.14
2022-11-20T19:31:52.413Z,-2.00
2022-11-20T19:34:18.937Z,-1.90
2022-11-20T19:36:45.917Z,-2.16
2022-11-20T19:39:12.970Z,-2.06
2022-11-20T19:41:40.894Z,-2.03
2022-11-20T19:44:09.930Z,-2.03
2022-11-20T19:46:37.905Z,-1.86
2022-11-20T19:49:07.417Z,-1.99
2022-11-20T19:51:35.070Z,-1.94
2022-11-20T19:54:01.576Z,-1.96
2022-11-20T19:56:29.624Z,-1.83
2022-11-20T19:58:57.082Z,-1.87
2022-11-20T20:01:26.788Z,-1.95
2022-11-20T20:03:54.042Z,-1.95
2022-11-20T20:06:26.149Z,-1.90
2022-11-20T20:09:06.247Z,-1.92
2022-11-20T20:11:34.258Z,-1.89
2022-11-20T20:14:02.479Z,-1.93
2022-11-20T20:16:29.157Z,-1.96
2022-11-20T20:18:57.969Z,-2.04
2022-11-20T20:21:24.449Z,-2.18
2022-11-20T20:23:53.581Z,-1.99
2022-11-20T20:26:21.578Z,-2.08
2022-11-20T20:28:48.078Z,-1.98
2022-11-20T20:31:17.991Z,-2.08
2022-11-20T20:33:45.235Z,-2.01
2022-11-20T20:36:13.591Z,-2.32
2022-11-20T20:38:40.308Z,-2.09
2022-11-20T20:41:06.744Z,-2.10
2022-11-20T20:43:53.112Z,-2.09
2022-11-20T20:46:20.048Z,-2.05
2022-11-20T20:48:50.255Z,-2.05
2022-11-20T20:51:20.689Z,-2.09
2022-11-20T20:53:47.128Z,-2.14
2022-11-20T20:56:13.812Z,-2.31
2022-11-20T20:58:40.580Z,-2.16
2022-11-20T21:01:09.382Z,-2.20
2022-11-20T21:03:36.808Z,-2.15
2022-11-20T21:06:05.113Z,-2.39
2022-11-20T21:08:31.715Z,-2.24
2022-11-20T21:11:03.846Z,-2.40
2022-11-20T21:13:30.876Z,-2.53
2022-11-20T21:15:57.544Z,-2.56
2022-11-20T21:18:26.185Z,-2.59
2022-11-20T21:21:11.742Z,-2.64
2022-11-20T21:23:38.757Z,-2.70
2022-11-20T21:26:09.177Z,-2.61
2022-11-20T21:28:37.505Z,-2.66
2022-11-20T21:31:09.865Z,-2.56
2022-11-20T21:33:44.510Z,-2.48
2022-11-20T21:36:14.010Z,-2.56
2022-11-20T21:38:40.948Z,-2.45
2022-11-20T21:41:08.740Z,-2.49
2022-11-20T21:43:35.771Z,-2.43
2022-11-20T21:46:08.351Z,-2.74
2022-11-20T21:48:37.014Z,-2.72
2022-11-20T21:51:28.045Z,-2.81
2022-11-20T21:53:55.368Z,-2.72
2022-11-20T21:56:24.664Z,-2.82
2022-11-20T21:58:53.172Z,-2.76
2022-11-20T22:01:27.947Z,-2.91
2022-11-20T22:04:02.416Z,-3.10
2022-11-20T22:06:34.136Z,-3.36
2022-11-20T22:09:03.804Z,-3.02
2022-11-20T22:11:30.720Z,-3.00
2022-11-20T22:14:15.606Z,-2.83
2022-11-20T22:16:42.317Z,-3.02
2022-11-20T22:19:09.296Z,-2.99
2022-11-20T22:21:38.439Z,-2.98
2022-11-20T22:24:04.940Z,-3.17
2022-11-20T22:26:39.657Z,-2.83
2022-11-20T22:29:07.640Z,-3.36
2022-11-20T22:31:34.157Z,-3.15
2022-11-20T22:34:02.454Z,-3.23
2022-11-20T22:36:31.082Z,-3.02
2022-11-20T22:38:58.191Z,-3.48
2022-11-20T22:41:27.381Z,-3.16
2022-11-20T22:43:56.223Z,-3.20
2022-11-20T22:46:23.526Z,-2.97
2022-11-20T22:48:51.195Z,-3.45
2022-11-20T22:51:22.175Z,-2.92
2022-11-20T22:53:49.337Z,-2.78
2022-11-20T22:56:17.198Z,-2.64
2022-11-20T22:58:48.406Z,-2.76
2022-11-20T23:01:20.094Z,-2.68
2022-11-20T23:03:48.646Z,-2.90
2022-11-20T23:06:16.816Z,-2.97
2022-11-20T23:08:43.818Z,-3.03
2022-11-20T23:11:12.592Z,-3.29
2022-11-20T23:13:39.447Z,-3.53
2022-11-20T23:16:17.653Z,-3.41
2022-11-20T23:18:44.876Z,-3.18
2022-11-20T23:21:13.323Z,-3.47
2022-11-20T23:23:40.333Z,-3.49
2022-11-20T23:26:12.139Z,-3.54
2022-11-20T23:28:40.455Z,-3.60
2022-11-20T23:31:07.832Z,-3.24
2022-11-20T23:33:39.318Z,-3.52
2022-11-20T23:36:06.658Z,-3.30
2022-11-20T23:38:33.884Z,-3.51
2022-11-20T23:41:01.241Z,-3.18
2022-11-20T23:43:27.789Z,-3.24
2022-11-20T23:45:59.618Z,-3.01
2022-11-20T23:48:28.690Z,-3.78
2022-11-20T23:50:55.881Z,-3.64
2022-11-20T23:53:22.787Z,-3.41
2022-11-20T23:55:54.211Z,-3.81
2022-11-20T23:58:21.313Z,-3.60
